Tiempo atmosférico en la estación meteorológica de San Bartolome Tirajana, El Matorral, Las Palmas (41 m.)



Fecha
DESCASC
Temp. máxima en grados centígrados (hora)
DESCASC
Temp. mínima en grados centígrados (hora)
DESCASC
Temp. media en grados centígrados
DESCASC
Racha de viento máxima en m/sg (hora)
DESCASC
Velocidad máxima media en intervalos de 10 minutos(hora)
DESCASC
Precipitaciones diarias en mm
DESCASC
Precipitaciones de 00:00 a 06:00 en mm
DESCASC
Precipitaciones de 06:00 a 12:00 en mm
DESCASC
Precipitaciones de 12:00 a 18:00 en mm
DESCASC
Precipitaciones de 18:00 a 24:00 en mm
DESCASC
16-04-2019 24.1 (14:50) 16.7 (07:10) 20.4 8.89 (00:20) 5 (00:10) 0 0 0 0 0
15-04-2019 24.4 (16:10) 14.5 (07:00) 19.4 15 (12:30) 8.61 (12:00) 0 0 0 0 0
14-04-2019 22.6 (14:00) 14.1 (00:00) 18.4 12.5 (03:40) 6.39 (03:50) 0 0 0 0 0
13-04-2019 23.6 (17:30) 17 (00:00) 20.3 17.78 (01:30) 10.83 (01:30) 0 0 0 0 0
12-04-2019 22.6 (15:40) 16.7 (00:00) 19.7 16.39 (16:00) 10.83 (14:40) 0 0 0 0 0
11-04-2019 22.8 (15:20) 16.4 (00:00) 19.6 16.94 (19:30) 10.28 (13:10) 0 0 0 0 0
10-04-2019 22.8 (13:20) 16.3 (00:00) 19.5 15.83 (15:50) 10 (17:20) 0 0 0 0 0
09-04-2019 23.1 (12:20) 14.3 (00:00) 18.7 14.44 (13:00) 8.61 (18:10) 0 0 0 0 0
08-04-2019 22.4 (11:50) 13.7 (00:00) 18 10.28 (16:00) 6.11 (16:10) 0 0 0 0 0
07-04-2019 22 (11:20) 13.2 (00:00) 17.6 9.17 (01:00) 5.56 (01:00) 0 0 0 0 0
06-04-2019 23.8 (14:40) 13.9 (00:00) 18.8 14.72 (12:30) 8.61 (12:30) 0 0 0 0 0
05-04-2019 23.4 (16:30) 13 (00:00) 18.2 9.72 (17:50) 5.83 (17:50) 0 0 0 0 0
04-04-2019 23.2 (15:00) 12.7 (00:00) 18 9.17 (12:30) 5.83 (17:20) 0 0 0 0 0
03-04-2019 23.5 (15:20) 14.8 (00:00) 19.2 10.83 (16:20) 7.22 (16:00) 4.2 0 4 0.2 0
02-04-2019 24.1 (14:10) 14.6 (00:00) 19.4 7.22 (16:40) 5 (16:50) 0 0 0 0 0
01-04-2019 21.7 (12:40) 13 (00:00) 17.4 6.67 (14:40) 3.89 (14:40) 0 0 0 0 0
31-03-2019 22.4 (14:10) 12.2 (00:00) 17.3 7.78 (18:40) 5.28 (17:30) 0.4 0 0 0 0.4
30-03-2019 21.7 (11:50) 12.9 (00:00) 17.3 8.89 (09:30) 5.28 (11:00) 0 0 0 0 0
29-03-2019 22.4 (13:30) 12.8 (00:00) 17.6 8.61 (16:40) 5.83 (16:40) 0 0 0 0 0
28-03-2019 22.1 (13:10) 13 (00:00) 17.6 7.78 (12:40) 4.44 (11:50) 0 0 0 0 0
27-03-2019 20.7 (10:10) 13 (00:00) 16.9 5.83 (22:40) 3.61 (12:40) 0.6 0 0 0.6 0
26-03-2019 20.9 (16:20) 12.2 (00:00) 16.5 6.39 (11:50) 4.72 (12:00) 1.4 0 0 1.4 0
25-03-2019 20.8 (11:10) 12.5 (00:00) 16.6 8.33 (13:30) 5.83 (13:30) 6 0 0 5.8 0.2
24-03-2019 22 (14:30) 14 (00:00) 18 12.22 (00:10) 7.78 (00:10) 0 0 0 0 0
23-03-2019 22.2 (13:00) 16.7 (00:00) 19.5 18.61 (05:40) 12.22 (05:40) 0 0 0 0 0
22-03-2019 21.9 (14:30) 16.3 (00:00) 19.1 22.78 (20:10) 13.89 (20:40) 0 0 0 0 0
21-03-2019 23.6 (13:20) 16.7 (00:00) 20.2 17.78 (20:50) 11.11 (20:40) 0 0 0 0 0
20-03-2019 22.7 (15:10) 15.4 (00:00) 19.1 15 (09:40) 9.72 (09:20) 0 0 0 0 0
19-03-2019 22 (13:30) 16.3 (00:00) 19.1 15.56 (10:00) 10 (11:20) 0 0 0 0 0

Gráficas

Temp. máximas Temp. mínimas Temp. medias Precipitaciones Rachas de viento máximas Velocidades máximas media en intervalos de 10 minutos

Datos horarios

Fecha y hora oficial Temperatura (ºC) Velocidad del viento (km/h) Dirección del viento Racha (km/h) Dirección de racha Precipitación (mm) Presión (hPa) Tendencia (hPa) Humedad (%)
2019-04-17 23:00:00 18.7 6 Nordeste 12 Nordeste 0 -- -- 68
2019-04-17 22:00:00 18.9 4 Nordeste 9 Norte 0 -- -- 70
2019-04-17 21:00:00 19.4 3 Nordeste 9 Sudeste 0 -- -- 70
2019-04-17 20:00:00 19.4 4 Este 12 Nordeste 0 -- -- 70
2019-04-17 19:00:00 19.1 8 Nordeste 17 Nordeste 0 -- -- 76
2019-04-17 18:00:00 19.8 8 Nordeste 17 Nordeste 0 -- -- 74
2019-04-17 17:00:00 20.4 4 Este 15 Este 0 -- -- 69
2019-04-17 16:00:00 21.8 6 Sudeste 17 Sudeste 0 -- -- 63
2019-04-17 15:00:00 22.3 9 Sudeste 18 Sudeste 0 -- -- 61
2019-04-17 14:00:00 22.4 10 Sur 20 Sudeste 0 -- -- 62
2019-04-17 13:00:00 23.4 13 Sur 21 Sudeste 0 -- -- 58
2019-04-17 12:00:00 22.7 12 Sur 21 Sur 0 -- -- 61
2019-04-17 11:00:00 22.5 13 Sudoeste 21 Sudoeste 0 -- -- 59
2019-04-17 10:00:00 21.3 9 Sur 14 Sudoeste 0 -- -- 62
2019-04-17 09:00:00 19.3 0 Calma 6 Sudoeste 0 -- -- 67
2019-04-17 08:00:00 16.9 4 Sudoeste 10 Sudoeste 0 -- -- 73
2019-04-17 07:00:00 16.8 6 Oeste 9 Sudoeste 0 -- -- 75
2019-04-17 06:00:00 17.3 7 Sudoeste 10 Oeste 0 -- -- 75
2019-04-17 05:00:00 16.2 0 Calma 6 Noroeste 0 -- -- 83
2019-04-17 04:00:00 17.4 4 Norte 7 Norte 0 -- -- 79
2019-04-17 03:00:00 17.8 3 Oeste 5 Oeste 0 -- -- 83
2019-04-17 02:00:00 17 2 Este 8 Sudoeste 0 -- -- 85
2019-04-17 01:00:00 17.7 7 Sudoeste 12 Sudoeste 0 -- -- 85
2019-04-17 00:00:00 17.8 6 Sudoeste 10 Sudoeste 0 -- -- 86
2019-04-16 23:00:00 18.7 0 Calma 7 Este 0 -- -- 81
2019-04-16 22:00:00 18.1 5 Nordeste 12 Nordeste 0 -- -- 80
2019-04-16 21:00:00 18.7 8 Nordeste 12 Este 0 -- -- 79
2019-04-16 20:00:00 20.4 6 Este 13 Este 0 -- -- 73
2019-04-16 19:00:00 22.5 5 Sudeste 14 Sudeste 0 -- -- 66
2019-04-16 18:00:00 22.4 8 Sudeste 18 Sudeste 0 -- -- 66
2019-04-16 17:00:00 23 8 Sur 18 Sudoeste 0 -- -- 63
2019-04-16 16:00:00 23.6 9 Sudeste 18 Sur 0 -- -- 58
2019-04-16 15:00:00 23.5 12 Sudeste 22 Sudeste 0 -- -- 61
2019-04-16 14:00:00 22.3 13 Este 23 Este 0 -- -- 63
2019-04-16 13:00:00 22.3 14 Este 25 Este 0 -- -- 64
2019-04-16 12:00:00 21.8 15 Este 27 Nordeste 0 -- -- 61
2019-04-16 11:00:00 21.4 16 Nordeste 26 Nordeste 0 -- -- 66
2019-04-16 10:00:00 20 12 Nordeste 23 Nordeste 0 -- -- 72
2019-04-16 09:00:00 18.5 15 Nordeste 27 Nordeste 0 -- -- 79
2019-04-16 08:00:00 16.8 14 Nordeste 23 Nordeste 0 -- -- 86
2019-04-16 07:00:00 16.8 13 Nordeste 27 Nordeste 0 -- -- 86
2019-04-16 06:00:00 17 14 Nordeste 26 Nordeste 0 -- -- 86
2019-04-16 05:00:00 16.9 12 Nordeste 28 Nordeste 0 -- -- 87
2019-04-16 04:00:00 17.2 13 Nordeste 26 Nordeste 0 -- -- 85
2019-04-16 03:00:00 17.3 13 Nordeste 27 Nordeste 0 -- -- 82
2019-04-16 02:00:00 17.6 15 Nordeste 28 Norte 0 -- -- 83
2019-04-16 01:00:00 18 14 Nordeste 32 Nordeste 0 -- -- 77
2019-04-16 00:00:00 18.3 18 Nordeste 30 Norte 0 -- -- 72
2019-04-15 23:00:00 18.6 14 Nordeste 27 Nordeste 0 -- -- 69
2019-04-15 22:00:00 19.2 15 Nordeste 28 Nordeste 0 -- -- 66
2019-04-15 21:00:00 19.7 14 Nordeste 33 Norte 0 -- -- 63
2019-04-15 20:00:00 21 17 Nordeste 33 Nordeste 0 -- -- 60
2019-04-15 19:00:00 22.4 18 Nordeste 36 Nordeste 0 -- -- 55
2019-04-15 18:00:00 22.4 22 Nordeste 43 Nordeste 0 -- -- 54
2019-04-15 17:00:00 23.8 22 Nordeste 39 Nordeste 0 -- -- 50
2019-04-15 16:00:00 24.1 24 Nordeste 41 Nordeste 0 -- -- 51
2019-04-15 15:00:00 22.9 24 Nordeste 42 Nordeste 0 -- -- 59
2019-04-15 14:00:00 22.7 27 Nordeste 48 Nordeste 0 -- -- 57
2019-04-15 13:00:00 23.3 30 Nordeste 54 Nordeste 0 -- -- 54
2019-04-15 12:00:00 23 31 Nordeste 50 Nordeste 0 -- -- 53
2019-04-15 11:00:00 21.6 26 Norte 39 Norte 0 -- -- 55
2019-04-15 10:00:00 20.1 5 Sudoeste 10 Sudoeste 0 -- -- 67
2019-04-15 09:00:00 18.3 5 Norte 9 Norte 0 -- -- 70
2019-04-15 08:00:00 14.9 7 Norte 9 Norte 0 -- -- 85
2019-04-15 07:00:00 14.5 5 Nordeste 9 Oeste 0 -- -- 79
2019-04-15 06:00:00 15.5 5 Noroeste 13 Norte 0 -- -- 78
2019-04-15 05:00:00 16 6 Norte 10 Nordeste 0 -- -- 76
2019-04-15 04:00:00 16.7 4 Nordeste 7 Nordeste 0 -- -- 72
2019-04-15 03:00:00 16.7 4 Norte 14 Norte 0 -- -- 73
2019-04-15 02:00:00 16.8 8 Nordeste 12 Nordeste 0 -- -- 76
2019-04-15 01:00:00 17.7 5 Nordeste 10 Sudoeste 0 -- -- 74
2019-04-15 00:00:00 18.9 0 Calma 8 Nordeste 0 -- -- 72
2019-04-14 23:00:00 18 4 Nordeste 10 Sudoeste 0 -- -- 78
2019-04-14 22:00:00 18.4 9 Sudoeste 14 Sudoeste 0 -- -- 78
2019-04-14 21:00:00 19.4 8 Sudoeste 13 Este 0 -- -- 73
2019-04-14 20:00:00 19.3 10 Este 19 Este 0 -- -- 75
2019-04-14 19:00:00 20.4 6 Sudeste 20 Este 0 -- -- 72
2019-04-14 18:00:00 19.9 12 Este 21 Este 0 -- -- 74
2019-04-14 17:00:00 21 14 Este 26 Este 0 -- -- 69
2019-04-14 16:00:00 22.2 16 Este 28 Este 0 -- -- 64
2019-04-14 15:00:00 22.5 17 Este 27 Este 0 -- -- 63
2019-04-14 14:00:00 22.6 15 Este 24 Este 0 -- -- 63
2019-04-14 13:00:00 22.2 16 Este 26 Este 0 -- -- 63
2019-04-14 12:00:00 21.9 15 Este 28 Este 0 -- -- 63
2019-04-14 11:00:00 21.7 13 Nordeste 21 Nordeste 0 -- -- 62
2019-04-14 10:00:00 20.2 6 Nordeste 15 Nordeste 0 -- -- 62
2019-04-14 09:00:00 17.8 6 Norte 12 Norte 0 -- -- 62
2019-04-14 08:00:00 14.7 2 Nordeste 9 Norte 0 -- -- 70
2019-04-14 07:00:00 14.4 3 Oeste 30 Nordeste 0 -- -- 63
2019-04-14 06:00:00 16.4 17 Nordeste 32 Nordeste 0 -- -- 66
2019-04-14 05:00:00 16.2 11 Nordeste 37 Nordeste 0 -- -- 70
2019-04-14 04:00:00 16.6 21 Nordeste 45 Nordeste 0 -- -- 70
2019-04-14 03:00:00 16.6 20 Nordeste 37 Nordeste 0 -- -- 74
2019-04-14 02:00:00 16.7 14 Norte 35 Norte 0 -- -- 76
2019-04-14 01:00:00 17.1 20 Norte 37 Nordeste 0 -- -- 71
2019-04-14 00:00:00 17.4 25 Nordeste 42 Nordeste 0 -- -- 70
2019-04-13 23:00:00 17.6 19 Norte 45 Norte 0 -- -- 69
2019-04-13 22:00:00 17.8 17 Nordeste 33 Nordeste 0 -- -- 66
2019-04-13 21:00:00 18.5 13 Nordeste 33 Nordeste 0 -- -- 59
2019-04-13 20:00:00 20.4 21 Nordeste 38 Norte 0 -- -- 55
2019-04-13 19:00:00 22.5 21 Nordeste 46 Nordeste 0 -- -- 48
2019-04-13 18:00:00 23.2 26 Nordeste 51 Nordeste 0 -- -- 49
2019-04-13 17:00:00 22.8 27 Nordeste 48 Nordeste 0 -- -- 55
2019-04-13 16:00:00 22.6 30 Nordeste 50 Nordeste 0 -- -- 55
2019-04-13 15:00:00 22.5 31 Nordeste 50 Nordeste 0 -- -- 56
2019-04-13 14:00:00 22.9 28 Nordeste 48 Nordeste 0 -- -- 53
2019-04-13 13:00:00 22 30 Nordeste 53 Nordeste 0 -- -- 54
2019-04-13 12:00:00 21.9 29 Nordeste 51 Nordeste 0 -- -- 57
2019-04-13 11:00:00 21.1 26 Nordeste 50 Norte 0 -- -- 52
2019-04-13 10:00:00 19.4 28 Norte 50 Nordeste 0 -- -- 57
2019-04-13 09:00:00 18 30 Nordeste 47 Nordeste 0 -- -- 64
2019-04-13 08:00:00 17 24 Nordeste 51 Norte 0 -- -- 67
2019-04-13 07:00:00 17.2 31 Norte 55 Norte 0 -- -- 65
2019-04-13 06:00:00 17.2 28 Norte 57 Norte 0 -- -- 63
2019-04-13 05:00:00 17.5 26 Nordeste 50 Norte 0 -- -- 63
2019-04-13 04:00:00 17.4 23 Nordeste 53 Norte 0 -- -- 60
2019-04-13 03:00:00 17.4 32 Norte 60 Norte 0 -- -- 63
2019-04-13 02:00:00 17.6 32 Norte 64 Norte 0 -- -- 59
2019-04-13 01:00:00 17.2 30 Nordeste 52 Nordeste 0 -- -- 64
2019-04-13 00:00:00 17.6 23 Norte 56 Nordeste 0 -- -- 61
2019-04-12 23:00:00 17.2 25 Nordeste 50 Nordeste 0 -- -- 60
2019-04-12 22:00:00 17.4 27 Nordeste 52 Norte 0 -- -- 62
2019-04-12 21:00:00 17.7 26 Nordeste 53 Norte 0 -- -- 62
2019-04-12 20:00:00 18.7 27 Nordeste 49 Nordeste 0 -- -- 59
2019-04-12 19:00:00 20.6 26 Nordeste 52 Norte 0 -- -- 50
2019-04-12 18:00:00 21.4 31 Nordeste 57 Nordeste 0 -- -- 47
2019-04-12 17:00:00 22 32 Nordeste 53 Nordeste 0 -- -- 48
2019-04-12 16:00:00 22.3 31 Nordeste 59 Nordeste 0 -- -- 50
2019-04-12 15:00:00 22 35 Nordeste 58 Nordeste 0 -- -- 47
2019-04-12 14:00:00 22.2 35 Nordeste 57 Nordeste 0 -- -- 48
2019-04-12 13:00:00 21.8 32 Nordeste 54 Nordeste 0 -- -- 49
2019-04-12 12:00:00 19.8 28 Nordeste 48 Nordeste 0 -- -- 64
2019-04-12 11:00:00 20 30 Norte 46 Norte 0 -- -- 56
2019-04-12 10:00:00 19.3 27 Norte 50 Norte 0 -- -- 52
2019-04-12 09:00:00 18.3 24 Norte 42 Norte 0 -- -- 58
2019-04-12 08:00:00 17.3 28 Norte 50 Norte 0 -- -- 57
2019-04-12 07:00:00 16.7 28 Norte 57 Norte 0 -- -- 63
2019-04-12 06:00:00 17.1 24 Nordeste 55 Norte 0 -- -- 62
2019-04-12 05:00:00 17.1 31 Norte 52 Norte 0 -- -- 59
2019-04-12 04:00:00 16.8 27 Norte 49 Norte 0 -- -- 63
2019-04-12 03:00:00 16.8 29 Norte 54 Norte 0 -- -- 64
2019-04-12 02:00:00 17.2 29 Norte 58 Norte 0 -- -- 59
2019-04-12 01:00:00 17.3 28 Norte 50 Norte 0 -- -- 60
2019-04-12 00:00:00 17.4 26 Norte 57 Norte 0 -- -- 64
2019-04-11 23:00:00 17.5 30 Nordeste 50 Norte 0 -- -- 65
2019-04-11 22:00:00 18 24 Nordeste 58 Norte 0 -- -- 58
2019-04-11 21:00:00 18.3 29 Norte 48 Norte 0 -- -- 54
2019-04-11 20:00:00 18.6 30 Norte 61 Norte 0 -- -- 54
2019-04-11 19:00:00 19.9 31 Nordeste 52 Norte 0 -- -- 52
2019-04-11 18:00:00 20.3 27 Norte 47 Nordeste 0 -- -- 53
2019-04-11 17:00:00 22.4 28 Norte 56 Norte 0 -- -- 50
2019-04-11 16:00:00 22.8 29 Norte 53 Nordeste 0 -- -- 46
2019-04-11 15:00:00 22.7 27 Norte 53 Norte 0 -- -- 47
2019-04-11 14:00:00 22.2 32 Nordeste 59 Nordeste 0 -- -- 46
2019-04-11 13:00:00 21.7 32 Nordeste 54 Nordeste 0 -- -- 48
2019-04-11 12:00:00 20.8 34 Norte 59 Norte 0 -- -- 48
2019-04-11 11:00:00 19.7 30 Norte 54 Nordeste 0 -- -- 53
2019-04-11 10:00:00 18.6 29 Norte 48 Nordeste 0 -- -- 55
2019-04-11 09:00:00 17.4 28 Nordeste 47 Norte 0 -- -- 58
2019-04-11 08:00:00 16.8 28 Norte 49 Nordeste 0 -- -- 59
2019-04-11 07:00:00 16.6 19 Nordeste 46 Norte 0 -- -- 63
2019-04-11 06:00:00 16.7 24 Nordeste 48 Nordeste 0 -- -- 64
2019-04-11 05:00:00 17 27 Norte 46 Norte 0 -- -- 60
2019-04-11 04:00:00 16.9 27 Norte 43 Norte 0 -- -- 59
2019-04-11 03:00:00 16.7 22 Norte 40 Norte 0 -- -- 58
2019-04-11 02:00:00 16.9 27 Norte 43 Nordeste 0 -- -- 61
2019-04-11 01:00:00 16.9 25 Nordeste 42 Norte 0 -- -- 60
2019-04-11 00:00:00 17.5 29 Norte 42 Norte 0 -- -- 58
2019-04-10 23:00:00 17.7 19 Norte 49 Norte 0 -- -- 59
2019-04-10 22:00:00 18.6 31 Norte 49 Nordeste 0 -- -- 53
2019-04-10 21:00:00 17.7 28 Norte 46 Norte 0 -- -- 62
2019-04-10 20:00:00 18.5 26 Norte 48 Nordeste 0 -- -- 62
2019-04-10 19:00:00 19.8 30 Nordeste 51 Nordeste 0 -- -- 57
2019-04-10 18:00:00 21.3 33 Norte 56 Norte 0 -- -- 48
2019-04-10 17:00:00 22.2 32 Norte 57 Nordeste 0 -- -- 44
2019-04-10 16:00:00 22.1 31 Nordeste 57 Norte 0 -- -- 46
2019-04-10 15:00:00 22.1 31 Nordeste 54 Norte 0 -- -- 48
2019-04-10 14:00:00 22.4 31 Norte 56 Norte 0 -- -- 43
2019-04-10 13:00:00 22.1 28 Nordeste 50 Nordeste 0 -- -- 45
2019-04-10 12:00:00 20.7 28 Nordeste 55 Nordeste 0 -- -- 51
2019-04-10 11:00:00 20.3 35 Norte 57 Nordeste 0 -- -- 46
2019-04-10 10:00:00 18.9 28 Nordeste 48 Nordeste 0 -- -- 53
2019-04-10 09:00:00 17.6 27 Norte 46 Norte 0 -- -- 61
2019-04-10 08:00:00 16.6 23 Norte 40 Nordeste 0 -- -- 65
2019-04-10 07:00:00 16.9 16 Norte 43 Norte 0 -- -- 56
2019-04-10 06:00:00 16.7 20 Nordeste 40 Norte 0 -- -- 62
2019-04-10 05:00:00 16.5 27 Norte 42 Nordeste 0 -- -- 60
2019-04-10 04:00:00 16.4 22 Nordeste 49 Nordeste 0 -- -- 62
2019-04-10 03:00:00 16.4 26 Nordeste 54 Nordeste 0 -- -- 67
2019-04-10 02:00:00 16.9 27 Nordeste 47 Nordeste 0 -- -- 65
2019-04-10 01:00:00 17 28 Nordeste 50 Nordeste 0 -- -- 63
2019-04-10 00:00:00 17.1 25 Nordeste 42 Norte 0 -- -- 62
2019-04-09 23:00:00 17 24 Nordeste 48 Nordeste 0 -- -- 67
2019-04-09 22:00:00 17.3 23 Norte 39 Norte 0 -- -- 66
2019-04-09 21:00:00 17.4 23 Norte 40 Nordeste 0 -- -- 68
2019-04-09 20:00:00 18 24 Nordeste 45 Norte 0 -- -- 69
2019-04-09 19:00:00 19.1 23 Nordeste 45 Norte 0 -- -- 68
2019-04-09 18:00:00 20.4 28 Nordeste 47 Nordeste 0 -- -- 65
2019-04-09 17:00:00 19.9 24 Norte 43 Nordeste 0 -- -- 67
2019-04-09 16:00:00 21 23 Nordeste 46 Norte 0 -- -- 60
2019-04-09 15:00:00 21.6 26 Nordeste 47 Norte 0 -- -- 59
2019-04-09 14:00:00 22.1 29 Nordeste 48 Nordeste 0 -- -- 63
2019-04-09 13:00:00 23.1 27 Nordeste 52 Norte 0 -- -- 56
2019-04-09 12:00:00 22.7 21 Nordeste 36 Nordeste 0 -- -- 54
2019-04-09 11:00:00 21.6 19 Nordeste 32 Este 0 -- -- 52
2019-04-09 10:00:00 20 17 Norte 34 Norte 0 -- -- 59
2019-04-09 09:00:00 17.6 13 Nordeste 26 Nordeste 0 -- -- 69
2019-04-09 08:00:00 17.6 15 Norte 26 Norte 0 -- -- 66
2019-04-09 07:00:00 14.8 6 Norte 12 Norte 0 -- -- 75
2019-04-09 06:00:00 14.9 5 Noroeste 15 Nordeste 0 -- -- 75
2019-04-09 05:00:00 16.1 7 Norte 23 Norte 0 -- -- 70
2019-04-09 04:00:00 16.4 12 Nordeste 23 Nordeste 0 -- -- 68
2019-04-09 03:00:00 14.6 11 Norte 18 Norte 0 -- -- 75
2019-04-09 02:00:00 14.4 7 Norte 12 Nordeste 0 -- -- 77
2019-04-09 01:00:00 15.1 6 Nordeste 21 Nordeste 0 -- -- 69
2019-04-09 00:00:00 16.4 7 Nordeste 24 Nordeste 0 -- -- 67
2019-04-08 23:00:00 17.1 15 Nordeste 28 Nordeste 0 -- -- 67
2019-04-08 22:00:00 17.2 13 Nordeste 27 Nordeste 0 -- -- 70
2019-04-08 21:00:00 17.7 18 Nordeste 30 Nordeste 0 -- -- 68
2019-04-08 20:00:00 18.6 19 Nordeste 34 Norte 0 -- -- 66
2019-04-08 19:00:00 19.4 19 Nordeste 37 Nordeste 0 -- -- 66
2019-04-08 18:00:00 19.9 19 Nordeste 35 Nordeste 0 -- -- 64
2019-04-08 17:00:00 20.6 19 Nordeste 35 Nordeste 0 -- -- 60
2019-04-08 16:00:00 20.5 21 Nordeste 37 Nordeste 0 -- -- 63
2019-04-08 15:00:00 21.9 19 Nordeste 33 Norte 0 -- -- 56
2019-04-08 14:00:00 19.8 18 Nordeste 32 Nordeste 0 -- -- 72
2019-04-08 13:00:00 20.2 18 Nordeste 32 Nordeste 0 -- -- 66
2019-04-08 12:00:00 22 18 Nordeste 33 Nordeste 0 -- -- 53
2019-04-08 11:00:00 20.4 17 Nordeste 30 Norte 0 -- -- 63
2019-04-08 10:00:00 17.4 18 Nordeste 28 Norte 0 -- -- 78
2019-04-08 09:00:00 17.7 6 Nordeste 17 Norte 0 -- -- 63
2019-04-08 08:00:00 13.9 8 Norte 13 Nordeste 0 -- -- 76
2019-04-08 07:00:00 14.5 9 Norte 13 Nordeste 0 -- -- 76
2019-04-08 06:00:00 14.7 5 Noroeste 12 Norte 0 -- -- 77
2019-04-08 05:00:00 15.1 6 Norte 14 Norte 0 -- -- 76
2019-04-08 04:00:00 14.4 9 Noroeste 11 Norte 0 -- -- 78
2019-04-08 03:00:00 14.3 5 Noroeste 10 Norte 0 -- -- 80
2019-04-08 02:00:00 15 7 Norte 14 Nordeste 0 -- -- 80
2019-04-08 01:00:00 14.6 6 Norte 10 Norte 0 -- -- 77
2019-04-08 00:00:00 16 6 Nordeste 14 Nordeste 0 -- -- 72
2019-04-07 23:00:00 16.7 8 Nordeste 19 Nordeste 0 -- -- 73
2019-04-07 22:00:00 17.3 10 Norte 18 Nordeste 0 -- -- 71
2019-04-07 21:00:00 18.5 10 Nordeste 17 Nordeste 0 -- -- 67
2019-04-07 20:00:00 19 0 Calma 11 Sur 0 -- -- 68
2019-04-07 19:00:00 19.2 7 Sur 14 Sur 0 -- -- 67
2019-04-07 18:00:00 18.9 12 Sudoeste 20 Sudoeste 0 -- -- 67
2019-04-07 17:00:00 19.4 13 Sudoeste 19 Sudoeste 0 -- -- 65
2019-04-07 16:00:00 19.8 10 Sudoeste 17 Sudoeste 0 -- -- 64
2019-04-07 15:00:00 20.3 10 Sur 18 Sur 0 -- -- 62
2019-04-07 14:00:00 21.1 12 Sur 21 Sur 0 -- -- 58
2019-04-07 13:00:00 21.6 13 Sur 21 Sur 0 -- -- 56
2019-04-07 12:00:00 19.8 11 Sur 19 Sudeste 0 -- -- 61
2019-04-07 11:00:00 21.6 8 Sudeste 16 Sur 0 -- -- 52
2019-04-07 10:00:00 20.4 3 Sudeste 10 Oeste 0 -- -- 49
2019-04-07 09:00:00 17.7 0 Calma 9 Norte 0 -- -- 57
2019-04-07 08:00:00 13.8 7 Noroeste 12 Noroeste 0 -- -- 71
2019-04-07 07:00:00 13.5 7 Norte 20 Nordeste 0 -- -- 71
2019-04-07 06:00:00 15.3 11 Nordeste 19 Nordeste 0 -- -- 71
2019-04-07 05:00:00 15.6 10 Norte 16 Nordeste 0 -- -- 64
2019-04-07 04:00:00 15.9 11 Norte 19 Nordeste 0 -- -- 63
2019-04-07 03:00:00 16.4 12 Norte 25 Nordeste 0 -- -- 63
2019-04-07 02:00:00 16.4 14 Nordeste 31 Nordeste 0 -- -- 66
2019-04-07 01:00:00 16.7 20 Nordeste 33 Norte 0 -- -- 66
2019-04-07 00:00:00 16.3 12 Nordeste 24 Norte 0 -- -- 61
2019-04-06 23:00:00 17.2 17 Norte 32 Norte 0 -- -- 56
2019-04-06 22:00:00 17.3 20 Norte 33 Norte 0 -- -- 63
2019-04-06 21:00:00 18.1 21 Norte 36 Nordeste 0 -- -- 59
2019-04-06 20:00:00 19.8 7 Norte 18 Norte 0 -- -- 51
2019-04-06 19:00:00 20.7 9 Sudoeste 24 Sur 0 -- -- 53
2019-04-06 18:00:00 20.4 14 Sudoeste 25 Sudoeste 0 -- -- 54
2019-04-06 17:00:00 21.8 13 Sudoeste 28 Sudoeste 0 -- -- 52
2019-04-06 16:00:00 22.5 20 Sudoeste 33 Sudoeste 0 -- -- 48
2019-04-06 15:00:00 21.4 16 Sur 27 Sur 0 -- -- 50
2019-04-06 14:00:00 21.6 17 Norte 44 Nordeste 0 -- -- 45
2019-04-06 13:00:00 21.2 27 Nordeste 53 Norte 0 -- -- 49
2019-04-06 12:00:00 20.6 27 Nordeste 42 Norte 0 -- -- 52
2019-04-06 11:00:00 21.2 17 Norte 40 Norte 0 -- -- 43
2019-04-06 10:00:00 19.6 12 Norte 27 Norte 0 -- -- 49
2019-04-06 09:00:00 16.6 13 Norte 23 Norte 0 -- -- 65
2019-04-06 08:00:00 15.9 11 Norte 19 Noroeste 0 -- -- 61
2019-04-06 07:00:00 14.1 10 Noroeste 14 Noroeste 0 -- -- 71
2019-04-06 06:00:00 14.3 6 Norte 16 Norte 0 -- -- 67
2019-04-06 05:00:00 16.5 13 Norte 24 Norte 0 -- -- 60
2019-04-06 04:00:00 16.2 14 Norte 40 Norte 0 -- -- 67
2019-04-06 03:00:00 16.3 18 Nordeste 37 Nordeste 0 -- -- 66
2019-04-06 02:00:00 16.8 23 Norte 38 Nordeste 0 -- -- 63
2019-04-06 01:00:00 16.6 23 Nordeste 40 Norte 0 -- -- 68
2019-04-06 00:00:00 17.5 21 Norte 32 Norte 0 -- -- 55
2019-04-05 23:00:00 17.6 16 Nordeste 30 Norte 0 -- -- 61
2019-04-05 22:00:00 18 14 Nordeste 33 Norte 0 -- -- 59
2019-04-05 21:00:00 18.6 14 Nordeste 24 Norte 0 -- -- 59
2019-04-05 20:00:00 19.4 6 Sudoeste 9 Sudoeste 0 -- -- 62
2019-04-05 19:00:00 20.2 9 Sur 23 Este 0 -- -- 60
2019-04-05 18:00:00 21.6 19 Este 35 Este 0 -- -- 58
2019-04-05 17:00:00 23 17 Sudeste 26 Sudeste 0 -- -- 54
2019-04-05 16:00:00 23.1 15 Sudeste 24 Sur 0 -- -- 52
2019-04-05 15:00:00 21.7 14 Sur 26 Sur 0 -- -- 55
2019-04-05 14:00:00 21.8 14 Sur 23 Sudeste 0 -- -- 55
2019-04-05 13:00:00 22.2 12 Sur 20 Sur 0 -- -- 55
2019-04-05 12:00:00 21.7 10 Sur 18 Sur 0 -- -- 56
2019-04-05 11:00:00 21.5 8 Sur 16 Sudoeste 0 -- -- 54
2019-04-05 10:00:00 20.2 2 Sudeste 13 Norte 0 -- -- 58
2019-04-05 09:00:00 16.6 5 Norte 11 Noroeste 0 -- -- 71
2019-04-05 08:00:00 13 8 Norte 12 Norte 0 -- -- 80
2019-04-05 07:00:00 13.4 7 Noroeste 14 Norte 0 -- -- 77
2019-04-05 06:00:00 13.1 9 Noroeste 13 Noroeste 0 -- -- 81
2019-04-05 05:00:00 13.9 4 Noroeste 16 Norte 0 -- -- 79
2019-04-05 04:00:00 13.9 9 Noroeste 12 Noroeste 0 -- -- 81
2019-04-05 03:00:00 14.2 6 Nordeste 14 Nordeste 0 -- -- 81
2019-04-05 02:00:00 14.6 7 Noroeste 15 Norte 0 -- -- 80
2019-04-05 01:00:00 15.6 10 Nordeste 20 Nordeste 0 -- -- 74
2019-04-05 00:00:00 16.2 6 Nordeste 22 Norte 0 -- -- 70
2019-04-04 23:00:00 16.7 8 Norte 23 Norte 0 -- -- 63
2019-04-04 22:00:00 17 6 Norte 19 Nordeste 0 -- -- 63
2019-04-04 21:00:00 17.6 9 Norte 14 Norte 0 -- -- 67
2019-04-04 20:00:00 18.2 10 Nordeste 22 Norte 0 -- -- 66
2019-04-04 19:00:00 18.9 13 Sudoeste 25 Sudoeste 0 -- -- 69
2019-04-04 18:00:00 19.4 18 Sudoeste 31 Sudoeste 0 -- -- 65
2019-04-04 17:00:00 19.9 11 Sur 31 Sudoeste 0 -- -- 64
2019-04-04 16:00:00 20.8 18 Sudoeste 29 Sudoeste 0 -- -- 61
2019-04-04 15:00:00 23.2 16 Sur 25 Sur 0 -- -- 50
2019-04-04 14:00:00 20.4 11 Norte 33 Nordeste 0 -- -- 58
2019-04-04 13:00:00 21 17 Nordeste 33 Este 0 -- -- 58
2019-04-04 12:00:00 21.8 14 Este 28 Este 0 -- -- 51
2019-04-04 11:00:00 20.6 8 Este 17 Este 0 -- -- 58
2019-04-04 10:00:00 19 6 Nordeste 10 Nordeste 0 -- -- 63
2019-04-04 09:00:00 16.2 5 Noroeste 10 Noroeste 0 -- -- 75
2019-04-04 08:00:00 12.7 8 Norte 10 Noroeste 0 -- -- 84
2019-04-04 07:00:00 13.3 8 Norte 12 Norte 0 -- -- 82
2019-04-04 06:00:00 13 7 Norte 10 Norte 0 -- -- 85
2019-04-04 05:00:00 13.8 6 Noroeste 13 Noroeste 0 -- -- 78
2019-04-04 04:00:00 14.1 7 Noroeste 22 Noroeste 0 -- -- 76
2019-04-04 03:00:00 15.6 5 Noroeste 9 Noroeste 0 -- -- 83
2019-04-04 02:00:00 15.3 6 Oeste 8 Sudoeste 0 -- -- 82
2019-04-04 01:00:00 15.4 6 Sudoeste 11 Sur 0 -- -- 81
2019-04-04 00:00:00 14.8 3 Sur 5 Sudeste 0 -- -- 83
2019-04-03 23:00:00 16.7 3 Norte 7 Nordeste 0 -- -- 76
2019-04-03 22:00:00 17.5 4 Nordeste 12 Nordeste 0 -- -- 74
2019-04-03 21:00:00 17.4 6 Nordeste 15 Este 0 -- -- 72
2019-04-03 20:00:00 18.7 10 Nordeste 27 Nordeste 0 -- -- 67
2019-04-03 19:00:00 19.1 11 Nordeste 22 Nordeste 0 -- -- 65
2019-04-03 18:00:00 19.5 13 Nordeste 26 Nordeste 0 -- -- 65
2019-04-03 17:00:00 22.2 12 Norte 39 Sudoeste 0 -- -- 57
2019-04-03 16:00:00 22.7 26 Sudoeste 37 Sudoeste 0 -- -- 53
2019-04-03 15:00:00 22.6 14 Sudeste 27 Sudeste 0 -- -- 60
2019-04-03 14:00:00 20.8 16 Este 25 Este 0.2 -- -- 68
2019-04-03 13:00:00 21.5 10 Sudeste 22 Este 0 -- -- 69
2019-04-03 12:00:00 19.2 14 Este 19 Este 0 -- -- 83
2019-04-03 11:00:00 17.2 6 Nordeste 18 Norte 2.2 -- -- 88
2019-04-03 10:00:00 17.8 9 Nordeste 13 Nordeste 1.8 -- -- 85
2019-04-03 09:00:00 18.1 4 Nordeste 6 Nordeste 0 -- -- 82
2019-04-03 08:00:00 15.5 2 Sudeste 4 Sudeste 0 -- -- 89
2019-04-03 07:00:00 16.3 0 Calma 3 Noroeste 0 -- -- 89
2019-04-03 06:00:00 15.5 3 Noroeste 5 Oeste 0 -- -- 89
2019-04-03 05:00:00 15.4 0 Calma 3 Noroeste 0 -- -- 88
2019-04-03 04:00:00 15.5 2 Sudeste 3 Sudeste 0 -- -- 86
2019-04-03 03:00:00 17.3 0 Calma 4 Norte 0 -- -- 83
2019-04-03 02:00:00 17.4 4 Nordeste 9 Nordeste 0 -- -- 83
2019-04-03 01:00:00 17.9 4 Nordeste 8 Nordeste 0 -- -- 81
2019-04-03 00:00:00 17.6 4 Nordeste 8 Nordeste 0 -- -- 80
2019-04-02 23:00:00 17.8 3 Nordeste 9 Nordeste 0 -- -- 80
2019-04-02 22:00:00 17.9 4 Nordeste 14 Este 0 -- -- 81
2019-04-02 21:00:00 18.1 10 Este 21 Este 0 -- -- 79
2019-04-02 20:00:00 19.1 14 Nordeste 23 Este 0 -- -- 76
2019-04-02 19:00:00 21.1 10 Sur 26 Sur 0 -- -- 67
2019-04-02 18:00:00 21.4 15 Sudoeste 25 Sur 0 -- -- 62
2019-04-02 17:00:00 22.9 15 Sur 26 Sur 0 -- -- 59
2019-04-02 16:00:00 23.1 15 Sur 24 Sur 0 -- -- 59
2019-04-02 15:00:00 23.6 10 Sur 18 Sudeste 0 -- -- 53
2019-04-02 14:00:00 23.5 10 Sudeste 21 Este 0 -- -- 54
2019-04-02 13:00:00 22.8 12 Este 20 Este 0 -- -- 58
2019-04-02 12:00:00 22.3 11 Este 17 Sudeste 0 -- -- 60
2019-04-02 11:00:00 21.6 8 Este 17 Este 0 -- -- 63
2019-04-02 10:00:00 19.9 7 Norte 14 Norte 0 -- -- 69
2019-04-02 09:00:00 18.2 5 Norte 13 Noroeste 0 -- -- 74
2019-04-02 08:00:00 15.6 6 Noroeste 13 Norte 0 -- -- 80
2019-04-02 07:00:00 16.3 4 Noroeste 13 Noroeste 0 -- -- 79
2019-04-02 06:00:00 15.5 8 Noroeste 12 Noroeste 0 -- -- 84
2019-04-02 05:00:00 15.4 8 Norte 12 Norte 0 -- -- 83
2019-04-02 04:00:00 14.9 9 Norte 13 Norte 0 -- -- 83
2019-04-02 03:00:00 14.8 7 Norte 11 Norte 0 -- -- 83
2019-04-02 02:00:00 15.6 8 Norte 11 Norte 0 -- -- 78
2019-04-02 01:00:00 15.4 8 Norte 10 Norte 0 -- -- 81
2019-04-02 00:00:00 15.5 6 Norte 9 Norte 0 -- -- 82
2019-04-01 23:00:00 15.2 7 Norte 8 Norte 0 -- -- 85
2019-04-01 22:00:00 16.2 7 Norte 9 Norte 0 -- -- 81
2019-04-01 21:00:00 17.3 5 Norte 8 Nordeste 0 -- -- 76
2019-04-01 20:00:00 18.1 6 Nordeste 11 Este 0 -- -- 73
2019-04-01 19:00:00 20.4 7 Este 15 Este 0 -- -- 64
2019-04-01 18:00:00 20.2 8 Este 17 Sudeste 0 -- -- 67
2019-04-01 17:00:00 19.3 8 Este 18 Este 0 -- -- 69
2019-04-01 16:00:00 19.4 9 Este 22 Sudeste 0 -- -- 67
2019-04-01 15:00:00 20.6 12 Este 24 Este 0 -- -- 64
2019-04-01 14:00:00 20.4 11 Este 22 Este 0 -- -- 64
2019-04-01 13:00:00 21.5 12 Este 21 Este 0 -- -- 64
2019-04-01 12:00:00 21 11 Este 21 Este 0 -- -- 62
2019-04-01 11:00:00 21 11 Este 17 Este 0 -- -- 62
2019-04-01 10:00:00 19.9 4 Este 9 Este 0 -- -- 60
2019-04-01 09:00:00 16.2 5 Norte 10 Noroeste 0 -- -- 76
2019-04-01 08:00:00 13.6 8 Noroeste 10 Noroeste 0 -- -- 83
2019-04-01 07:00:00 13.2 6 Norte 9 Noroeste 0 -- -- 82
2019-04-01 06:00:00 13.7 5 Noroeste 11 Oeste 0 -- -- 81
2019-04-01 05:00:00 13.6 4 Norte 11 Norte 0 -- -- 82
2019-04-01 04:00:00 13.7 4 Noroeste 10 Noroeste 0 -- -- 86
2019-04-01 03:00:00 13.7 5 Norte 8 Noroeste 0 -- -- 87
2019-04-01 02:00:00 14 4 Norte 8 Nordeste 0 -- -- 86
2019-04-01 01:00:00 15.3 5 Norte 12 Nordeste 0 -- -- 77
2019-04-01 00:00:00 15.6 6 Norte 14 Norte 0 -- -- 81
2019-03-31 23:00:00 16.8 8 Nordeste 13 Nordeste 0 -- -- 77
2019-03-31 22:00:00 17.3 8 Nordeste 17 Norte 0 -- -- 77
2019-03-31 21:00:00 17.7 3 Noroeste 17 Sudoeste 0.2 -- -- 85
2019-03-31 20:00:00 17.7 12 Sudoeste 24 Sudoeste 0 -- -- 84
2019-03-31 19:00:00 18.5 15 Sudoeste 28 Sur 0.2 -- -- 78
2019-03-31 18:00:00 18.7 17 Sudoeste 27 Sur 0 -- -- 79
2019-03-31 17:00:00 19.5 15 Sur 26 Sur 0 -- -- 72
2019-03-31 16:00:00 19.7 15 Sur 23 Sur 0 -- -- 67
2019-03-31 15:00:00 20.8 15 Sur 24 Sur 0 -- -- 64
2019-03-31 14:00:00 22.2 14 Sur 25 Sur 0 -- -- 60
2019-03-31 13:00:00 21.5 15 Sur 25 Sur 0 -- -- 60
2019-03-31 12:00:00 20.8 14 Sur 23 Sudoeste 0 -- -- 64
2019-03-31 11:00:00 20 11 Sur 19 Sur 0 -- -- 67
2019-03-31 10:00:00 19.7 4 Sudeste 13 Sudeste 0 -- -- 69
2019-03-31 09:00:00 16.3 5 Noroeste 12 Noroeste 0 -- -- 75
2019-03-31 08:00:00 13.3 9 Noroeste 13 Noroeste 0 -- -- 77
2019-03-31 07:00:00 12.7 8 Noroeste 12 Noroeste 0 -- -- 79
2019-03-31 06:00:00 12.5 8 Noroeste 12 Noroeste 0 -- -- 80
2019-03-31 05:00:00 13 8 Noroeste 12 Noroeste 0 -- -- 80
2019-03-31 04:00:00 13.3 6 Noroeste 10 Noroeste 0 -- -- 79
2019-03-31 00:00:00 14.1 6 Norte 9 Norte 0 -- -- 85
2019-03-30 23:00:00 14.4 6 Norte 9 Norte 0 -- -- 86
2019-03-30 22:00:00 15.8 4 Noroeste 14 Nordeste 0 -- -- 77
2019-03-30 21:00:00 17.1 8 Nordeste 15 Nordeste 0 -- -- 72
2019-03-30 20:00:00 17.7 3 Norte 14 Nordeste 0 -- -- 72
2019-03-30 19:00:00 18.5 9 Nordeste 19 Nordeste 0 -- -- 70
2019-03-30 18:00:00 20 12 Nordeste 18 Nordeste 0 -- -- 57
2019-03-30 17:00:00 18.7 10 Norte 18 Norte 0 -- -- 64
2019-03-30 16:00:00 18.8 10 Norte 21 Norte 0 -- -- 68
2019-03-30 15:00:00 17.8 13 Norte 23 Nordeste 0 -- -- 73
2019-03-30 14:00:00 17.8 14 Norte 22 Nordeste 0 -- -- 68
2019-03-30 13:00:00 17.3 16 Nordeste 27 Este 0 -- -- 76
2019-03-30 12:00:00 21.1 17 Nordeste 27 Nordeste 0 -- -- 55
2019-03-30 11:00:00 20.4 19 Nordeste 29 Este 0 -- -- 55
2019-03-30 10:00:00 19.4 14 Nordeste 32 Nordeste 0 -- -- 61
2019-03-30 09:00:00 18.6 14 Nordeste 27 Nordeste 0 -- -- 67
2019-03-30 08:00:00 16 5 Noroeste 10 Noroeste 0 -- -- 71
2019-03-30 07:00:00 13.3 8 Noroeste 12 Noroeste 0 -- -- 81
2019-03-30 06:00:00 13.8 9 Noroeste 13 Norte 0 -- -- 77
2019-03-30 05:00:00 13.5 7 Noroeste 10 Noroeste 0 -- -- 78
2019-03-30 04:00:00 13.6 7 Noroeste 10 Noroeste 0 -- -- 80
2019-03-30 03:00:00 13.9 8 Noroeste 10 Noroeste 0 -- -- 81
2019-03-30 02:00:00 14 7 Norte 10 Norte 0 -- -- 81
2019-03-30 01:00:00 14.5 6 Norte 9 Oeste 0 -- -- 81
2019-03-30 00:00:00 14.5 6 Noroeste 8 Noroeste 0 -- -- 86
2019-03-29 23:00:00 15.3 6 Norte 9 Norte 0 -- -- 82
2019-03-29 22:00:00 15.6 2 Noroeste 5 Sudeste 0 -- -- 80
2019-03-29 21:00:00 17.1 2 Noroeste 9 Norte 0 -- -- 72
2019-03-29 20:00:00 17.9 2 Norte 9 Norte 0 -- -- 74
2019-03-29 19:00:00 18.8 2 Sudoeste 28 Sudoeste 0 -- -- 71
2019-03-29 18:00:00 19.2 12 Sudoeste 28 Sudoeste 0 -- -- 71
2019-03-29 17:00:00 19.9 20 Sudoeste 31 Sudoeste 0 -- -- 69
2019-03-29 16:00:00 20.4 19 Sur 30 Sur 0 -- -- 69
2019-03-29 15:00:00 22.4 15 Sur 26 Sur 0 -- -- 64
2019-03-29 14:00:00 21.2 17 Sur 24 Sur 0 -- -- 68
2019-03-29 13:00:00 21.6 15 Sur 23 Sur 0 -- -- 66
2019-03-29 12:00:00 22.3 11 Sudeste 21 Sudeste 0 -- -- 65
2019-03-29 11:00:00 21.6 10 Sudeste 15 Sur 0 -- -- 62
2019-03-29 10:00:00 21.1 7 Sudeste 11 Este 0 -- -- 64
2019-03-29 09:00:00 18.9 3 Norte 10 Noroeste 0 -- -- 71
2019-03-29 08:00:00 15.6 7 Noroeste 12 Noroeste 0 -- -- 75
2019-03-29 07:00:00 13.3 8 Noroeste 13 Noroeste 0 -- -- 80
2019-03-29 06:00:00 13.1 8 Noroeste 12 Noroeste 0 -- -- 82
2019-03-29 05:00:00 13.1 9 Noroeste 13 Norte 0 -- -- 83
2019-03-29 04:00:00 13.5 10 Noroeste 14 Noroeste 0 -- -- 86
2019-03-29 03:00:00 13.3 7 Norte 10 Norte 0 -- -- 89
2019-03-29 02:00:00 13.7 7 Norte 11 Noroeste 0 -- -- 89
2019-03-29 01:00:00 14.5 8 Noroeste 10 Noroeste 0 -- -- 89
2019-03-29 00:00:00 15 9 Noroeste 12 Noroeste 0 -- -- 88
2019-03-28 23:00:00 14.9 7 Norte 11 Norte 0 -- -- 88
2019-03-28 22:00:00 15.4 8 Norte 10 Norte 0 -- -- 89
2019-03-28 21:00:00 16.2 4 Noroeste 15 Norte 0 -- -- 86
2019-03-28 20:00:00 17.3 9 Norte 17 Norte 0 -- -- 85
2019-03-28 19:00:00 17.9 10 Nordeste 16 Este 0 -- -- 81
2019-03-28 18:00:00 17.9 10 Nordeste 20 Nordeste 0 -- -- 84
2019-03-28 17:00:00 18.8 12 Nordeste 22 Nordeste 0 -- -- 77
2019-03-28 16:00:00 19.3 12 Nordeste 22 Este 0 -- -- 75
2019-03-28 15:00:00 19.5 14 Este 26 Este 0 -- -- 74
2019-03-28 14:00:00 20.7 13 Este 24 Este 0 -- -- 70
2019-03-28 13:00:00 21.5 14 Este 28 Este 0 -- -- 67
2019-03-28 12:00:00 21.1 14 Este 24 Nordeste 0 -- -- 68
2019-03-28 11:00:00 20.6 14 Este 22 Este 0 -- -- 68
2019-03-28 10:00:00 20 13 Nordeste 20 Este 0 -- -- 71
2019-03-28 09:00:00 18.7 10 Norte 15 Norte 0 -- -- 72
2019-03-28 08:00:00 15.5 7 Norte 12 Noroeste 0 -- -- 78
2019-03-28 07:00:00 13.2 9 Norte 12 Norte 0 -- -- 84
2019-03-28 06:00:00 13.7 9 Norte 12 Noroeste 0 -- -- 83
2019-03-28 05:00:00 13 6 Norte 10 Noroeste 0 -- -- 86
2019-03-28 04:00:00 13.9 9 Norte 15 Noroeste 0 -- -- 84
2019-03-28 03:00:00 14.5 11 Norte 14 Noroeste 0 -- -- 83
2019-03-28 02:00:00 14.9 10 Norte 13 Norte 0 -- -- 81
2019-03-28 01:00:00 15.4 8 Norte 13 Norte 0 -- -- 81
2019-03-28 00:00:00 16.5 9 Nordeste 19 Nordeste 0 -- -- 80
2019-03-27 23:00:00 17 13 Nordeste 21 Norte 0 -- -- 79
2019-03-27 22:00:00 16.4 9 Norte 14 Norte 0 -- -- 81
2019-03-27 21:00:00 16.6 6 Nordeste 13 Nordeste 0 -- -- 82
2019-03-27 20:00:00 17.6 8 Nordeste 16 Nordeste 0 -- -- 81
2019-03-27 19:00:00 18.2 8 Nordeste 17 Nordeste 0 -- -- 79
2019-03-27 18:00:00 19.2 12 Nordeste 21 Este 0 -- -- 76
2019-03-27 17:00:00 18.9 9 Este 13 Este 0 -- -- 80
2019-03-27 16:00:00 19.3 8 Nordeste 13 Nordeste 0.2 -- -- 78
2019-03-27 15:00:00 19.5 6 Sudeste 15 Sur 0 -- -- 75
2019-03-27 14:00:00 19.6 8 Sur 16 Sur 0.4 -- -- 81
2019-03-27 13:00:00 18.8 10 Sur 19 Sur 0 -- -- 80
2019-03-27 12:00:00 19.6 10 Sur 20 Sur 0 -- -- 76
2019-03-27 11:00:00 19.8 10 Sur 17 Sur 0 -- -- 73
2019-03-27 10:00:00 20.5 6 Sur 13 Sudoeste 0 -- -- 71
2019-03-27 09:00:00 19.2 5 Sudoeste 10 Sudoeste 0 -- -- 74
2019-03-27 08:00:00 14.9 5 Noroeste 10 Noroeste 0 -- -- 78
2019-03-27 07:00:00 13 6 Noroeste 10 Noroeste 0 -- -- 82
2019-03-27 06:00:00 13.3 8 Noroeste 11 Noroeste 0 -- -- 83
2019-03-27 05:00:00 13.4 7 Noroeste 10 Oeste 0 -- -- 83
2019-03-27 04:00:00 14.5 7 Oeste 11 Oeste 0 -- -- 86
2019-03-27 03:00:00 14.6 9 Oeste 15 Oeste 0 -- -- 82
2019-03-27 02:00:00 14.7 5 Oeste 16 Oeste 0 -- -- 84
2019-03-27 01:00:00 13.5 4 Noroeste 8 Oeste 0 -- -- 87
2019-03-27 00:00:00 14.1 7 Noroeste 11 Noroeste 0 -- -- 86
2019-03-26 23:00:00 14.1 6 Noroeste 8 Noroeste 0 -- -- 87
2019-03-26 22:00:00 14.7 6 Noroeste 8 Norte 0 -- -- 87
2019-03-26 21:00:00 15.4 6 Norte 8 Norte 0 -- -- 87
2019-03-26 20:00:00 16.7 5 Norte 10 Norte 0 -- -- 82
2019-03-26 19:00:00 17.7 3 Norte 15 Sudoeste 0 -- -- 76
2019-03-26 18:00:00 18.2 11 Sudoeste 19 Sudoeste 0 -- -- 76
2019-03-26 17:00:00 18.5 11 Sur 18 Sudeste 0 -- -- 76
2019-03-26 16:00:00 20.3 9 Sur 15 Sur 0 -- -- 72
2019-03-26 15:00:00 20.7 10 Sur 15 Sudoeste 0 -- -- 74
2019-03-26 14:00:00 19.2 4 Sudoeste 10 Sudoeste 0.2 -- -- 82
2019-03-26 13:00:00 18.4 4 Sudeste 20 Sur 1.2 -- -- 77
2019-03-26 12:00:00 20.2 17 Sur 23 Sur 0 -- -- 67
2019-03-26 11:00:00 19.9 13 Sur 20 Sur 0 -- -- 68
2019-03-26 10:00:00 19.2 9 Sur 13 Sur 0 -- -- 70
2019-03-26 09:00:00 17.7 8 Sur 10 Sur 0 -- -- 74
2019-03-26 08:00:00 15.1 5 Oeste 8 Noroeste 0 -- -- 79
2019-03-26 07:00:00 12.2 7 Norte 10 Noroeste 0 -- -- 85
2019-03-26 06:00:00 12.7 9 Noroeste 12 Noroeste 0 -- -- 84
2019-03-26 05:00:00 12.7 9 Noroeste 12 Noroeste 0 -- -- 85
2019-03-26 04:00:00 12.7 6 Norte 10 Norte 0 -- -- 87
2019-03-26 03:00:00 13.6 9 Noroeste 12 Noroeste 0 -- -- 88
2019-03-26 02:00:00 13.9 9 Sudoeste 13 Sudoeste 0 -- -- 90
2019-03-26 01:00:00 13.7 8 Sudoeste 14 Sudoeste 0 -- -- 91
2019-03-26 00:00:00 14.5 9 Sudoeste 12 Oeste 0 -- -- 90
2019-03-25 23:00:00 15 8 Oeste 10 Oeste 0 -- -- 90
2019-03-25 22:00:00 15.1 5 Sudoeste 11 Sudeste 0.2 -- -- 88
2019-03-25 21:00:00 15.7 7 Sudeste 13 Sudeste 0 -- -- 91
2019-03-25 20:00:00 15.7 5 Sur 15 Sudeste 0 -- -- 91
2019-03-25 19:00:00 16.5 5 Sudeste 8 Sudeste 0 -- -- 84
2019-03-25 18:00:00 16.9 5 Sur 10 Sur 0 -- -- 77
2019-03-25 17:00:00 17.1 8 Sur 13 Sur 0 -- -- 81
2019-03-25 16:00:00 18.8 15 Sur 21 Sur 1.8 -- -- 76
2019-03-25 15:00:00 14.9 16 Sudoeste 25 Sudoeste 3.8 -- -- 91
2019-03-25 14:00:00 16.6 14 Sudoeste 30 Sudoeste 0.2 -- -- 82
2019-03-25 13:00:00 20.2 14 Sudoeste 20 Sur 0 -- -- 61
2019-03-25 12:00:00 19.3 12 Sudoeste 24 Sudoeste 0 -- -- 66
2019-03-25 11:00:00 19.9 12 Sudoeste 19 Sur 0 -- -- 70
2019-03-25 10:00:00 18.1 9 Sudoeste 14 Sudoeste 0 -- -- 73
2019-03-25 09:00:00 16.7 8 Sudoeste 10 Sudoeste 0 -- -- 75
2019-03-25 08:00:00 15.1 5 Oeste 8 Oeste 0 -- -- 74
2019-03-25 07:00:00 12.9 5 Norte 8 Norte 0 -- -- 79
2019-03-25 06:00:00 12.6 4 Noroeste 6 Noroeste 0 -- -- 85
2019-03-25 05:00:00 12.8 4 Noroeste 5 Oeste 0 -- -- 86
2019-03-25 04:00:00 13.6 4 Oeste 6 Oeste 0 -- -- 84
2019-03-25 03:00:00 13.7 5 Oeste 7 Noroeste 0 -- -- 84
2019-03-25 02:00:00 13.5 3 Oeste 5 Sudoeste 0 -- -- 85
2019-03-25 01:00:00 13.9 4 Noroeste 6 Sudoeste 0 -- -- 82
2019-03-25 00:00:00 14.2 3 Oeste 5 Sudoeste 0 -- -- 81
2019-03-24 23:00:00 14.9 0 Calma 4 Sur 0 -- -- 78
2019-03-24 22:00:00 16.1 3 Sur 5 Este 0 -- -- 77
2019-03-24 21:00:00 16.4 4 Este 9 Nordeste 0 -- -- 76
2019-03-24 20:00:00 17.2 7 Este 13 Este 0 -- -- 73
2019-03-24 19:00:00 17.6 9 Este 19 Este 0 -- -- 71
2019-03-24 18:00:00 18.1 14 Este 21 Este 0 -- -- 69
2019-03-24 17:00:00 19.3 10 Este 21 Este 0 -- -- 64
2019-03-24 16:00:00 20.4 12 Este 23 Este 0 -- -- 60
2019-03-24 15:00:00 21.4 14 Este 23 Este 0 -- -- 56
2019-03-24 14:00:00 20.9 14 Este 26 Este 0 -- -- 53
2019-03-24 13:00:00 20.3 15 Este 30 Este 0 -- -- 58
2019-03-24 12:00:00 21.8 17 Este 26 Nordeste 0 -- -- 54
2019-03-24 11:00:00 20.5 11 Nordeste 23 Este 0 -- -- 52
2019-03-24 10:00:00 20.8 11 Este 20 Nordeste 0 -- -- 49
2019-03-24 09:00:00 18.8 10 Nordeste 18 Nordeste 0 -- -- 53
2019-03-24 08:00:00 17.1 9 Norte 26 Norte 0 -- -- 64
2019-03-24 07:00:00 15.3 7 Norte 24 Nordeste 0 -- -- 71
2019-03-24 06:00:00 15.7 9 Norte 30 Norte 0 -- -- 70
2019-03-24 05:00:00 16 14 Nordeste 32 Norte 0 -- -- 69
2019-03-24 04:00:00 16 15 Nordeste 29 Norte 0 -- -- 71
2019-03-24 03:00:00 16.3 17 Nordeste 33 Norte 0 -- -- 66
2019-03-24 02:00:00 16.3 16 Nordeste 39 Nordeste 0 -- -- 65
2019-03-24 01:00:00 16.5 24 Nordeste 44 Norte 0 -- -- 66
2019-03-24 00:00:00 16.8 25 Norte 48 Nordeste 0 -- -- 63
2019-03-23 23:00:00 17.1 30 Norte 55 Norte 0 -- -- 59
2019-03-23 22:00:00 17.1 25 Nordeste 44 Norte 0 -- -- 58
2019-03-23 21:00:00 17.2 15 Nordeste 33 Norte 0 -- -- 58
2019-03-23 20:00:00 17.4 17 Norte 30 Norte 0 -- -- 61
2019-03-23 19:00:00 18.8 18 Nordeste 32 Norte 0 -- -- 62
2019-03-23 18:00:00 20.4 24 Norte 48 Norte 0 -- -- 54
2019-03-23 17:00:00 20.4 31 Nordeste 55 Nordeste 0 -- -- 54
2019-03-23 16:00:00 21.2 29 Nordeste 56 Nordeste 0 -- -- 52
2019-03-23 15:00:00 21.4 32 Nordeste 66 Nordeste 0 -- -- 51
2019-03-23 14:00:00 21.2 38 Nordeste 59 Nordeste 0 -- -- 54
2019-03-23 13:00:00 22.2 32 Nordeste 61 Norte 0 -- -- 49
2019-03-23 12:00:00 21.6 34 Nordeste 58 Nordeste 0 -- -- 52
2019-03-23 11:00:00 20.8 33 Nordeste 53 Norte 0 -- -- 56
2019-03-23 10:00:00 19.8 31 Nordeste 56 Norte 0 -- -- 59
2019-03-23 09:00:00 18.6 33 Nordeste 51 Nordeste 0 -- -- 59
2019-03-23 08:00:00 17.4 35 Norte 57 Norte 0 -- -- 64
2019-03-23 07:00:00 17 36 Nordeste 66 Nordeste 0 -- -- 67
2019-03-23 06:00:00 16.8 40 Nordeste 67 Nordeste 0 -- -- 70
2019-03-23 05:00:00 16.8 37 Nordeste 64 Nordeste 0 -- -- 70
2019-03-23 04:00:00 16.9 37 Nordeste 58 Nordeste 0 -- -- 68
2019-03-23 03:00:00 17 38 Nordeste 62 Norte 0 -- -- 68
2019-03-23 02:00:00 16.8 30 Nordeste 54 Nordeste 0 -- -- 72
2019-03-23 01:00:00 17.3 24 Nordeste 67 Norte 0 -- -- 65
2019-03-23 00:00:00 17.2 31 Nordeste 61 Nordeste 0 -- -- 70
2019-03-22 23:00:00 17.7 31 Nordeste 60 Norte 0 -- -- 62
2019-03-22 22:00:00 18.6 42 Norte 69 Norte 0 -- -- 53
2019-03-22 21:00:00 18 46 Norte 82 Norte 0 -- -- 62
2019-03-22 20:00:00 17.8 45 Nordeste 73 Nordeste 0 -- -- 64
2019-03-22 19:00:00 18.4 46 Norte 73 Norte 0 -- -- 62
2019-03-22 18:00:00 19.6 43 Nordeste 72 Norte 0 -- -- 59
2019-03-22 17:00:00 21.1 35 Nordeste 61 Nordeste 0 -- -- 54
2019-03-22 16:00:00 21.2 38 Nordeste 64 Nordeste 0 -- -- 56
2019-03-22 15:00:00 21.9 37 Nordeste 59 Norte 0 -- -- 52
2019-03-22 14:00:00 21.7 37 Nordeste 60 Nordeste 0 -- -- 50
2019-03-22 13:00:00 20.7 37 Nordeste 59 Nordeste 0 -- -- 53
2019-03-22 12:00:00 20 35 Norte 56 Nordeste 0 -- -- 55
2019-03-22 11:00:00 18.4 31 Nordeste 71 Norte 0 -- -- 59
2019-03-22 10:00:00 18.7 42 Nordeste 67 Nordeste 0 -- -- 60
2019-03-22 09:00:00 17.6 46 Norte 72 Nordeste 0 -- -- 58
2019-03-22 08:00:00 16.6 44 Nordeste 70 Nordeste 0 -- -- 64
2019-03-22 07:00:00 16.5 46 Nordeste 72 Norte 0 -- -- 65
2019-03-22 06:00:00 16.5 41 Nordeste 69 Norte 0 -- -- 67
2019-03-22 05:00:00 16.6 45 Nordeste 72 Nordeste 0 -- -- 67
2019-03-22 04:00:00 16.7 44 Nordeste 68 Nordeste 0 -- -- 67
2019-03-22 03:00:00 16.7 36 Nordeste 70 Nordeste 0 -- -- 67
2019-03-22 02:00:00 16.8 35 Nordeste 58 Nordeste 0 -- -- 66
2019-03-22 01:00:00 16.8 35 Nordeste 61 Nordeste 0 -- -- 68
2019-03-22 00:00:00 16.8 37 Nordeste 62 Nordeste 0 -- -- 69
2019-03-21 23:00:00 16.9 37 Nordeste 59 Norte 0 -- -- 69
2019-03-21 22:00:00 17 33 Nordeste 62 Nordeste 0 -- -- 69
2019-03-21 21:00:00 17.3 38 Nordeste 64 Nordeste 0 -- -- 70
2019-03-21 20:00:00 17.5 32 Nordeste 63 Norte 0 -- -- 71
2019-03-21 19:00:00 18.3 32 Nordeste 58 Nordeste 0 -- -- 69
2019-03-21 18:00:00 19.3 36 Nordeste 55 Nordeste 0 -- -- 65
2019-03-21 17:00:00 20.9 31 Nordeste 54 Norte 0 -- -- 62
2019-03-21 16:00:00 21.8 32 Nordeste 52 Nordeste 0 -- -- 58
2019-03-21 15:00:00 22.8 31 Nordeste 52 Nordeste 0 -- -- 52
2019-03-21 14:00:00 23.3 30 Nordeste 51 Nordeste 0 -- -- 35
2019-03-21 13:00:00 23 31 Nordeste 58 Nordeste 0 -- -- 45
2019-03-21 12:00:00 21.8 33 Nordeste 54 Nordeste 0 -- -- 55
2019-03-21 11:00:00 20.7 30 Nordeste 54 Nordeste 0 -- -- 59
2019-03-21 10:00:00 20.1 29 Nordeste 48 Nordeste 0 -- -- 61
2019-03-21 09:00:00 18.7 28 Nordeste 50 Nordeste 0 -- -- 66
2019-03-21 08:00:00 17.5 34 Nordeste 55 Nordeste 0 -- -- 71
2019-03-21 07:00:00 16.8 28 Nordeste 46 Nordeste 0 -- -- 74
2019-03-21 06:00:00 16.9 27 Nordeste 52 Nordeste 0 -- -- 72
2019-03-21 05:00:00 16.9 24 Nordeste 52 Nordeste 0 -- -- 72
2019-03-21 04:00:00 16.8 27 Nordeste 50 Nordeste 0 -- -- 72
2019-03-21 03:00:00 16.8 26 Nordeste 47 Nordeste 0 -- -- 70
2019-03-21 02:00:00 16.7 24 Nordeste 43 Norte 0 -- -- 75
2019-03-21 01:00:00 16.8 20 Nordeste 42 Nordeste 0 -- -- 75
2019-03-21 00:00:00 16.9 24 Nordeste 47 Nordeste 0 -- -- 75
2019-03-20 23:00:00 17 23 Nordeste 39 Nordeste 0 -- -- 73
2019-03-20 22:00:00 17.2 22 Nordeste 48 Nordeste 0 -- -- 71
2019-03-20 21:00:00 17.5 21 Norte 43 Norte 0 -- -- 68
2019-03-20 20:00:00 17.7 26 Nordeste 43 Nordeste 0 -- -- 68
2019-03-20 19:00:00 18.3 23 Nordeste 45 Nordeste 0 -- -- 69
2019-03-20 18:00:00 20.3 26 Nordeste 44 Nordeste 0 -- -- 63
2019-03-20 17:00:00 21.8 21 Nordeste 42 Nordeste 0 -- -- 57
2019-03-20 16:00:00 21.7 26 Nordeste 49 Nordeste 0 -- -- 56
2019-03-20 15:00:00 22 26 Nordeste 44 Nordeste 0 -- -- 57
2019-03-20 14:00:00 21.6 31 Nordeste 51 Nordeste 0 -- -- 57
2019-03-20 13:00:00 22.1 27 Nordeste 45 Nordeste 0 -- -- 56
2019-03-20 12:00:00 22.3 25 Nordeste 48 Nordeste 0 -- -- 52
2019-03-20 11:00:00 20.7 28 Nordeste 46 Nordeste 0 -- -- 58
2019-03-20 10:00:00 19.6 30 Norte 54 Nordeste 0 -- -- 59
2019-03-20 09:00:00 18.1 34 Nordeste 52 Nordeste 0 -- -- 62
2019-03-20 08:00:00 16.5 24 Nordeste 40 Norte 0 -- -- 70
2019-03-20 07:00:00 15.7 18 Norte 32 Norte 0 -- -- 70
2019-03-20 06:00:00 15.8 19 Nordeste 35 Norte 0 -- -- 67
2019-03-20 05:00:00 15.9 18 Norte 41 Nordeste 0 -- -- 70
2019-03-20 04:00:00 15.5 11 Norte 29 Nordeste 0 -- -- 67
2019-03-20 03:00:00 16 19 Nordeste 36 Nordeste 0 -- -- 68
2019-03-20 02:00:00 16.2 19 Nordeste 37 Nordeste 0 -- -- 67
2019-03-20 01:00:00 16.5 17 Nordeste 33 Nordeste 0 -- -- 68
2019-03-20 00:00:00 16.3 17 Nordeste 38 Nordeste 0 -- -- 65
2019-03-19 23:00:00 16.5 18 Nordeste 41 Nordeste 0 -- -- 68
2019-03-19 22:00:00 16.7 23 Nordeste 42 Nordeste 0 -- -- 66
2019-03-19 21:00:00 17.1 25 Nordeste 49 Norte 0 -- -- 67
2019-03-19 20:00:00 17.3 21 Nordeste 48 Nordeste 0 -- -- 64
2019-03-19 19:00:00 17.9 26 Nordeste 50 Nordeste 0 -- -- 60
2019-03-19 18:00:00 19.4 30 Nordeste 50 Nordeste 0 -- -- 56
2019-03-19 17:00:00 20.5 28 Nordeste 50 Nordeste 0 -- -- 56
2019-03-19 16:00:00 20.9 29 Nordeste 53 Nordeste 0 -- -- 53
2019-03-19 15:00:00 21.1 33 Nordeste 55 Nordeste 0 -- -- 54
2019-03-19 14:00:00 22 30 Nordeste 55 Norte 0 -- -- 52
2019-03-19 13:00:00 21.4 34 Nordeste 53 Nordeste 0 -- -- 52
2019-03-19 12:00:00 21.3 27 Nordeste 56 Nordeste 0 -- -- 55
2019-03-19 11:00:00 20.3 29 Nordeste 51 Nordeste 0 -- -- 55
2019-03-19 10:00:00 19 31 Nordeste 56 Nordeste 0 -- -- 59
2019-03-19 09:00:00 17.9 31 Nordeste 48 Nordeste 0 -- -- 63
2019-03-19 08:00:00 16.7 22 Norte 42 Norte 0 -- -- 67
2019-03-19 07:00:00 16.4 25 Nordeste 48 Norte 0 -- -- 67
2019-03-19 06:00:00 16.4 26 Nordeste 43 Nordeste 0 -- -- 72
2019-03-19 05:00:00 16.8 26 Norte 41 Norte 0 -- -- 72
2019-03-19 04:00:00 16.8 25 Nordeste 44 Norte 0 -- -- 74
2019-03-19 03:00:00 16.9 21 Nordeste 45 Norte 0 -- -- 72
2019-03-19 02:00:00 17.4 26 Norte 44 Nordeste 0 -- -- 65
2019-03-19 01:00:00 17.4 26 Norte 50 Norte 0 -- -- 64
2019-03-19 00:00:00 17.6 28 Nordeste 47 Norte 0 -- -- 63